createdAt,value
2017-06-24T05:03:13.710Z,4
2017-06-24T05:04:22.170Z,4
2017-06-24T05:05:30.396Z,4
2017-06-24T05:06:37.990Z,4
2017-06-24T05:07:46.384Z,4
2017-06-24T05:08:54.168Z,4
2017-06-24T05:10:02.256Z,4
2017-06-24T05:11:10.346Z,4
2017-06-24T05:12:18.443Z,4
2017-06-24T05:13:26.528Z,4
2017-06-24T05:14:34.617Z,4
2017-06-24T05:15:42.718Z,4
2017-06-24T05:16:50.808Z,4
2017-06-24T05:17:58.900Z,4
2017-06-24T05:19:06.986Z,4
2017-06-24T05:20:15.078Z,4
2017-06-24T05:21:23.173Z,8
2017-06-24T05:22:31.446Z,4
2017-06-24T05:23:39.605Z,4
2017-06-24T05:24:47.668Z,8
2017-06-24T05:25:55.624Z,8
2017-06-24T05:27:03.647Z,8
2017-06-24T05:28:11.714Z,4
2017-06-24T05:29:19.804Z,8
2017-06-24T05:30:27.964Z,8
2017-06-24T05:31:36.006Z,8
2017-06-24T05:32:44.073Z,8
2017-06-24T05:33:52.268Z,4
2017-06-24T05:35:00.334Z,8
2017-06-24T05:36:08.378Z,8
2017-06-24T05:37:16.697Z,4
2017-06-24T05:38:24.530Z,4
2017-06-24T05:39:32.669Z,8
2017-06-24T05:40:40.702Z,8
2017-06-24T05:41:48.792Z,8
2017-06-24T05:42:57.317Z,8
2017-06-24T05:44:04.968Z,4
2017-06-24T05:45:13.059Z,8
2017-06-24T05:46:21.147Z,4
2017-06-24T05:47:29.335Z,4
2017-06-24T05:48:37.465Z,8
2017-06-24T05:49:45.421Z,8
2017-06-24T05:50:53.533Z,4
2017-06-24T05:52:01.703Z,4
2017-06-24T05:53:10.324Z,4
2017-06-24T05:54:17.924Z,0
2017-06-24T05:55:25.954Z,4
2017-06-24T05:56:33.957Z,4
2017-06-24T05:57:42.047Z,4
2017-06-24T05:58:50.136Z,4
2017-06-24T05:59:58.262Z,4
2017-06-24T06:01:06.397Z,4
2017-06-24T06:02:14.407Z,4
2017-06-24T06:03:22.545Z,4
2017-06-24T06:04:30.585Z,4
2017-06-24T06:05:38.706Z,4
2017-06-24T06:06:46.767Z,4
2017-06-24T06:07:54.931Z,4
2017-06-24T06:09:03.048Z,4
2017-06-24T06:10:11.036Z,4
2017-06-24T06:11:19.127Z,4
2017-06-24T06:12:27.570Z,4
2017-06-24T06:13:35.329Z,4
2017-06-24T06:14:43.397Z,4
2017-06-24T06:15:51.592Z,4
2017-06-24T06:16:59.576Z,4
2017-06-24T06:18:07.666Z,4
2017-06-24T06:19:15.755Z,4
2017-06-24T06:20:23.894Z,4
2017-06-24T06:21:31.937Z,4
2017-06-24T06:22:40.027Z,4
2017-06-24T06:23:48.212Z,0
2017-06-24T06:24:56.208Z,4
2017-06-24T06:26:04.379Z,4
2017-06-24T06:27:12.473Z,4
2017-06-24T06:28:20.475Z,0
2017-06-24T06:29:28.646Z,0
2017-06-24T06:30:36.719Z,0
2017-06-24T06:31:44.745Z,4
2017-06-24T06:32:52.852Z,4
2017-06-24T06:34:01.011Z,4
2017-06-24T06:35:09.011Z,8
2017-06-24T06:36:17.171Z,8
2017-06-24T06:37:25.193Z,8
2017-06-24T06:38:33.306Z,4
2017-06-24T06:39:41.376Z,4
2017-06-24T06:40:49.463Z,8
2017-06-24T06:41:57.718Z,8
2017-06-24T06:43:05.741Z,8
2017-06-24T06:44:13.852Z,8
2017-06-24T06:45:22.147Z,4
2017-06-24T06:46:29.992Z,4
2017-06-24T06:47:38.085Z,8
2017-06-24T06:48:46.166Z,8
2017-06-24T06:49:54.190Z,8
2017-06-24T06:51:02.386Z,4
2017-06-24T06:52:10.455Z,8
2017-06-24T10:35:44.016Z,36
2017-06-24T10:36:52.106Z,32
2017-06-24T10:38:00.197Z,20
2017-06-24T10:39:08.285Z,32
2017-06-24T10:40:16.373Z,24
2017-06-24T10:41:24.462Z,28
2017-06-24T10:42:32.551Z,32
2017-06-24T10:43:40.641Z,24
2017-06-24T10:44:48.757Z,24
2017-06-24T10:45:56.824Z,28
2017-06-24T10:47:04.912Z,24
2017-06-24T10:48:13.001Z,28
2017-06-24T10:49:21.090Z,28
2017-06-24T10:50:29.180Z,28
2017-06-24T10:51:37.268Z,32
2017-06-24T10:52:45.359Z,40
2017-06-24T10:53:53.469Z,36
2017-06-24T10:55:01.541Z,32
2017-06-24T10:56:09.627Z,24
2017-06-24T10:57:17.719Z,28
2017-06-24T10:58:25.809Z,28
2017-06-24T10:59:33.895Z,28
2017-06-24T11:00:41.986Z,28
2017-06-24T11:01:50.073Z,28
2017-06-24T11:02:58.163Z,28
2017-06-24T11:04:06.251Z,40
2017-06-24T11:05:14.342Z,24
2017-06-24T11:06:22.431Z,24
2017-06-24T11:07:30.519Z,24
2017-06-24T11:08:38.608Z,20
2017-06-24T11:09:46.695Z,16
2017-06-24T11:10:54.785Z,24
2017-06-24T11:12:02.875Z,24
2017-06-24T11:13:10.966Z,28
2017-06-24T11:14:19.055Z,24
2017-06-24T11:15:27.204Z,24
2017-06-24T11:16:35.239Z,28
2017-06-24T11:17:43.326Z,20
2017-06-24T11:18:51.429Z,20
2017-06-24T11:19:59.504Z,20
2017-06-24T11:21:07.594Z,24
2017-06-24T11:22:15.684Z,24
2017-06-24T11:23:23.775Z,16
2017-06-24T11:24:31.865Z,24
2017-06-24T11:25:39.954Z,20
2017-06-24T11:26:48.045Z,20
2017-06-24T11:27:56.134Z,28
2017-06-24T11:29:04.238Z,32
2017-06-24T11:30:12.311Z,28
2017-06-24T11:31:20.400Z,28
2017-06-24T11:32:28.579Z,36
2017-06-24T11:33:36.580Z,28
2017-06-24T11:34:44.670Z,24
2017-06-24T11:35:52.765Z,24
2017-06-24T11:37:00.853Z,28
2017-06-24T11:38:08.942Z,40
2017-06-24T11:39:17.032Z,28
2017-06-24T11:40:25.121Z,24
2017-06-24T11:41:33.210Z,28
2017-06-24T11:42:41.300Z,24
2017-06-24T11:43:49.394Z,24
2017-06-24T11:44:57.483Z,24
2017-06-24T11:46:05.569Z,24
2017-06-24T11:47:13.658Z,20
2017-06-24T11:48:21.746Z,32
2017-06-24T11:49:29.863Z,32
2017-06-24T11:50:37.925Z,32
2017-06-24T11:51:46.015Z,16
2017-06-24T11:52:54.105Z,28
2017-06-24T11:54:02.195Z,20
2017-06-24T11:55:10.284Z,20
2017-06-24T11:56:18.373Z,20
2017-06-24T11:57:26.462Z,24
2017-06-24T11:58:34.553Z,28
2017-06-24T11:59:42.642Z,24
2017-06-24T12:00:50.732Z,28
2017-06-24T12:01:58.823Z,24
2017-06-24T12:03:06.913Z,20
2017-06-24T12:04:15.001Z,16
2017-06-24T12:05:23.092Z,16
2017-06-24T12:06:31.180Z,20
2017-06-24T12:07:39.270Z,20
2017-06-24T12:08:47.358Z,20
2017-06-24T12:09:55.450Z,24
2017-06-24T12:11:03.541Z,24
2017-06-24T12:12:11.630Z,20
2017-06-24T12:13:20.408Z,16
2017-06-24T12:14:28.121Z,20
2017-06-24T12:15:36.169Z,16
2017-06-24T12:16:43.986Z,24
2017-06-24T12:17:52.094Z,24
2017-06-24T12:19:00.163Z,20
2017-06-24T12:20:08.256Z,20
2017-06-24T12:21:16.345Z,20
2017-06-24T12:22:24.438Z,16
2017-06-24T12:23:32.550Z,16
2017-06-24T12:24:40.616Z,20
2017-06-24T12:25:48.704Z,16
2017-06-24T12:26:56.804Z,20
2017-06-24T12:28:04.894Z,20
2017-06-24T12:29:12.981Z,16
2017-06-24T12:30:21.071Z,20
2017-06-24T12:31:29.160Z,24
2017-06-24T12:32:37.250Z,20
2017-06-24T12:33:45.341Z,16
2017-06-24T12:34:53.428Z,20
2017-06-24T12:36:01.529Z,16
2017-06-24T12:37:09.609Z,16
2017-06-24T12:38:17.699Z,16
2017-06-24T12:39:25.844Z,16
2017-06-24T12:40:33.878Z,16
2017-06-24T12:41:41.969Z,16
2017-06-24T12:42:50.058Z,20
2017-06-24T12:43:58.148Z,16
2017-06-24T12:45:06.259Z,20
2017-06-24T12:46:14.327Z,16
2017-06-24T12:47:22.424Z,16
2017-06-24T12:48:30.504Z,16
2017-06-24T12:49:38.595Z,16
2017-06-24T12:50:46.686Z,16
2017-06-24T12:51:54.775Z,20
2017-06-24T12:53:02.864Z,24
2017-06-24T12:54:10.952Z,20
2017-06-24T12:55:19.043Z,20
2017-06-24T12:56:27.309Z,16
2017-06-24T12:57:35.225Z,20
2017-06-24T12:58:43.315Z,16
2017-06-24T12:59:51.405Z,20
2017-06-24T13:00:59.497Z,20
2017-06-24T13:02:07.586Z,16
2017-06-24T13:03:15.673Z,16
2017-06-24T13:04:23.820Z,20
2017-06-24T13:05:31.856Z,12
2017-06-24T13:06:39.946Z,16
2017-06-24T13:07:48.036Z,16
2017-06-24T13:08:56.124Z,16
2017-06-24T13:10:04.216Z,16
2017-06-24T13:11:12.305Z,16
2017-06-24T13:12:20.400Z,16
2017-06-24T13:13:28.518Z,24
2017-06-24T13:14:36.582Z,16
2017-06-24T13:15:44.673Z,16
2017-06-24T13:16:52.763Z,20
2017-06-24T13:18:00.853Z,24
2017-06-24T13:19:08.943Z,32
2017-06-24T13:20:17.031Z,20
2017-06-24T13:21:25.132Z,20
2017-06-24T13:22:33.219Z,20
2017-06-24T13:23:41.640Z,20
2017-06-24T13:24:49.400Z,24
2017-06-24T13:25:57.492Z,24
2017-06-24T13:27:05.582Z,24
2017-06-24T13:28:13.668Z,28
2017-06-24T13:29:21.759Z,36
2017-06-24T13:30:29.850Z,20
2017-06-24T13:31:38.420Z,20
2017-06-24T13:32:46.029Z,24
2017-06-24T13:33:54.119Z,24
2017-06-24T13:35:02.210Z,20
2017-06-24T13:36:10.303Z,20
2017-06-24T13:37:18.399Z,24
2017-06-24T13:38:26.487Z,24
2017-06-24T13:39:34.601Z,32
2017-06-24T13:40:42.703Z,24
2017-06-24T13:41:50.756Z,24
2017-06-24T13:42:58.849Z,24
2017-06-24T13:44:06.938Z,28
2017-06-24T13:45:15.031Z,24
2017-06-24T13:46:23.119Z,20
2017-06-24T13:47:31.208Z,24
2017-06-24T13:48:39.306Z,20
2017-06-24T13:49:47.398Z,24
2017-06-24T13:50:55.490Z,32
2017-06-24T13:52:03.580Z,36
2017-06-24T13:53:11.907Z,24
2017-06-24T13:54:19.760Z,24
2017-06-24T13:55:27.851Z,28
2017-06-24T13:56:35.939Z,28
2017-06-24T13:57:44.097Z,28
2017-06-24T13:58:52.120Z,24
2017-06-24T14:00:00.209Z,20
2017-06-24T14:01:08.301Z,20
2017-06-24T14:02:16.392Z,24
2017-06-24T14:03:24.481Z,20
2017-06-24T14:04:32.569Z,24
2017-06-24T14:05:40.659Z,16
2017-06-24T14:06:48.752Z,24
2017-06-24T14:07:56.841Z,28
2017-06-24T14:09:04.933Z,28
2017-06-24T14:10:13.021Z,28
2017-06-24T14:11:21.113Z,28
2017-06-24T14:12:29.202Z,28
2017-06-24T14:13:37.292Z,24
2017-06-24T14:14:45.408Z,24
2017-06-24T14:15:53.497Z,20
2017-06-24T14:17:01.565Z,20
2017-06-24T14:18:09.654Z,20
2017-06-24T14:19:17.745Z,20
2017-06-24T14:20:25.835Z,24
2017-06-24T14:21:33.925Z,20
2017-06-24T14:22:42.017Z,20
2017-06-24T14:23:50.107Z,16
2017-06-24T14:24:58.253Z,20
2017-06-24T14:26:06.286Z,20
2017-06-24T14:27:14.376Z,20
2017-06-24T14:28:22.493Z,24
2017-06-24T14:29:30.561Z,24
2017-06-24T14:30:38.658Z,28
2017-06-24T14:31:46.768Z,28
2017-06-24T14:32:54.839Z,24
2017-06-24T14:34:02.930Z,24
2017-06-24T14:35:11.030Z,24
2017-06-24T14:36:19.119Z,16
2017-06-24T14:37:27.236Z,24
2017-06-24T14:38:35.300Z,24
2017-06-24T14:39:43.399Z,28
2017-06-24T14:40:51.488Z,20
2017-06-24T14:41:59.581Z,20
2017-06-24T14:43:07.673Z,20
2017-06-24T14:44:15.771Z,28
2017-06-24T14:45:23.853Z,24
2017-06-24T14:46:31.942Z,20
2017-06-24T14:47:40.032Z,16
2017-06-24T14:48:48.122Z,20
2017-06-24T14:49:56.213Z,16
2017-06-24T14:51:04.320Z,24
2017-06-24T14:52:12.392Z,20
2017-06-24T14:53:20.485Z,12
2017-06-24T14:54:28.577Z,20
2017-06-24T14:55:36.691Z,12
2017-06-24T14:56:44.757Z,12
2017-06-24T14:57:52.844Z,12
2017-06-24T14:59:00.937Z,12
2017-06-24T15:00:09.025Z,12
2017-06-24T15:01:17.116Z,12
2017-06-24T15:02:25.206Z,12
2017-06-24T15:03:33.298Z,16
2017-06-24T15:04:41.389Z,12
2017-06-24T15:05:49.503Z,12
2017-06-24T15:06:57.570Z,12
2017-06-24T15:08:05.658Z,12
2017-06-24T15:09:13.753Z,12
2017-06-24T15:10:21.840Z,12
2017-06-24T15:11:29.931Z,12
2017-06-24T15:12:38.029Z,12
2017-06-24T15:13:46.111Z,20
2017-06-24T15:14:54.201Z,24
2017-06-24T15:16:02.293Z,16
2017-06-24T15:17:10.386Z,16
2017-06-24T15:18:18.479Z,16
2017-06-24T15:19:26.570Z,16
2017-06-24T15:20:34.684Z,16
2017-06-24T15:21:42.752Z,16
2017-06-24T15:22:50.842Z,12
2017-06-24T15:23:58.932Z,12
2017-06-24T15:25:07.022Z,16
2017-06-24T15:26:15.112Z,12
2017-06-24T15:27:23.201Z,12
2017-06-24T15:28:31.293Z,16
2017-06-24T15:29:39.382Z,16
2017-06-24T15:30:47.476Z,12
2017-06-24T15:31:55.566Z,20
2017-06-24T15:33:03.655Z,12
2017-06-24T15:34:11.746Z,8
2017-06-24T15:35:19.837Z,12
2017-06-24T15:36:27.927Z,12
2017-06-24T15:37:36.015Z,12
2017-06-24T15:38:44.103Z,16
2017-06-24T15:39:52.194Z,12
2017-06-24T15:41:00.287Z,16
2017-06-24T15:42:08.376Z,16
2017-06-24T15:43:16.491Z,20
2017-06-24T15:44:24.560Z,16
2017-06-24T15:45:32.650Z,16
2017-06-24T15:46:40.740Z,12
2017-06-24T15:47:48.828Z,16
2017-06-24T15:48:56.921Z,12
2017-06-24T15:50:05.010Z,16
2017-06-24T15:51:13.099Z,12
2017-06-24T15:52:21.191Z,12
2017-06-24T15:53:29.279Z,12
2017-06-24T15:54:37.373Z,16
2017-06-24T15:55:45.460Z,12
2017-06-24T15:56:53.552Z,16
2017-06-24T15:58:01.642Z,8
2017-06-24T15:59:09.733Z,8
2017-06-24T16:00:17.825Z,8
2017-06-24T16:01:25.923Z,12
2017-06-24T16:02:34.013Z,12
2017-06-24T16:03:42.103Z,12
2017-06-24T16:04:50.193Z,16
2017-06-24T16:05:58.284Z,12
2017-06-24T16:07:06.374Z,12
2017-06-24T16:08:14.465Z,12
2017-06-24T16:09:22.554Z,12
2017-06-24T16:10:30.645Z,12
2017-06-24T16:11:38.734Z,8
2017-06-24T16:12:46.824Z,4
2017-06-24T16:13:54.913Z,8
2017-06-24T16:15:03.000Z,8
2017-06-24T16:16:11.092Z,12
2017-06-24T16:17:19.179Z,12
2017-06-24T16:18:27.272Z,12
2017-06-24T16:19:35.360Z,12
2017-06-24T16:20:43.453Z,12
2017-06-24T16:21:51.544Z,12
2017-06-24T16:22:59.633Z,8
2017-06-24T16:24:07.794Z,8
2017-06-24T16:25:15.812Z,12
2017-06-24T16:26:23.901Z,12
2017-06-24T16:27:31.991Z,4
2017-06-24T16:28:40.082Z,8
2017-06-24T16:29:48.172Z,8
2017-06-24T16:30:56.264Z,12
2017-06-24T16:32:04.353Z,8
2017-06-24T16:33:12.444Z,8
2017-06-24T16:34:20.574Z,12
2017-06-24T16:35:28.623Z,12
2017-06-24T16:36:36.713Z,12
2017-06-24T16:37:44.803Z,12
2017-06-24T16:38:52.895Z,8
2017-06-24T16:40:00.984Z,8
2017-06-24T16:41:09.074Z,8
2017-06-24T16:42:17.165Z,8
2017-06-24T16:43:25.253Z,8
2017-06-24T16:44:33.343Z,8
2017-06-24T16:45:41.433Z,8
2017-06-24T16:46:49.526Z,8
2017-06-24T16:47:57.616Z,8
2017-06-24T16:49:05.704Z,8
2017-06-24T16:50:13.795Z,12
2017-06-24T16:51:21.913Z,12
2017-06-24T16:52:29.977Z,12
2017-06-24T16:53:38.064Z,8
2017-06-24T16:54:46.155Z,8
2017-06-24T16:55:54.246Z,12
2017-06-24T16:57:02.336Z,8
2017-06-24T16:58:10.426Z,8
2017-06-24T16:59:18.518Z,8
2017-06-24T17:00:26.609Z,8
2017-06-24T17:01:34.700Z,8
2017-06-24T17:02:42.788Z,8
2017-06-24T17:03:50.877Z,8
2017-06-24T17:04:58.970Z,8
2017-06-24T17:06:07.055Z,8
2017-06-24T17:07:15.147Z,8
2017-06-24T17:08:23.237Z,8
2017-06-24T17:09:31.335Z,8
2017-06-24T17:10:39.426Z,8
2017-06-24T17:11:47.518Z,8
2017-06-24T17:12:55.676Z,8
2017-06-24T17:14:03.701Z,8
2017-06-24T17:15:11.788Z,8
2017-06-24T17:16:19.879Z,8
2017-06-24T17:17:27.970Z,8
2017-06-24T17:18:36.058Z,8
2017-06-24T17:19:44.151Z,8
2017-06-24T17:20:52.240Z,8
2017-06-24T17:22:00.330Z,8
2017-06-24T17:23:08.430Z,8
2017-06-24T17:24:16.510Z,8
2017-06-24T17:25:24.600Z,4
2017-06-24T17:26:32.691Z,4
2017-06-24T17:27:40.782Z,8
2017-06-24T17:28:48.873Z,8
2017-06-24T17:29:56.998Z,8
2017-06-24T17:31:05.052Z,8
2017-06-24T17:32:13.143Z,8
2017-06-24T17:33:21.231Z,8
2017-06-24T17:34:29.321Z,4
2017-06-24T17:35:37.415Z,8
2017-06-24T17:36:45.506Z,8
2017-06-24T17:37:53.596Z,8
2017-06-24T17:39:01.687Z,8
2017-06-24T17:40:09.778Z,4
2017-06-24T17:41:17.865Z,4
2017-06-24T17:42:25.957Z,8
2017-06-24T17:43:34.048Z,4
2017-06-24T17:44:42.139Z,8
2017-06-24T17:45:50.229Z,4
2017-06-24T17:46:58.317Z,8
2017-06-24T17:48:06.409Z,8
2017-06-24T17:49:14.499Z,8
2017-06-24T17:50:22.593Z,8
2017-06-24T17:51:30.714Z,4
2017-06-24T17:52:38.780Z,4
2017-06-24T17:53:46.869Z,4
2017-06-24T17:54:54.960Z,4
2017-06-24T17:56:03.056Z,8
2017-06-24T17:57:11.141Z,8
2017-06-24T17:58:19.233Z,8
2017-06-24T17:59:27.321Z,4
2017-06-24T18:00:35.410Z,4
2017-06-24T18:01:43.503Z,4
2017-06-24T18:02:51.593Z,4
2017-06-24T18:03:59.721Z,8
2017-06-24T18:05:07.774Z,4
2017-06-24T18:06:15.889Z,8
2017-06-24T18:07:23.955Z,4
2017-06-24T18:08:32.047Z,8
2017-06-24T18:09:40.135Z,4
2017-06-24T18:10:48.223Z,4
2017-06-24T18:11:56.314Z,4
2017-06-24T18:13:04.407Z,4
2017-06-24T18:14:12.515Z,8
2017-06-24T18:15:20.588Z,4
2017-06-24T18:16:28.677Z,4
2017-06-24T18:17:36.768Z,4
2017-06-24T18:18:44.857Z,4
2017-06-24T18:19:52.950Z,4
2017-06-24T18:21:01.046Z,4
2017-06-24T18:22:09.128Z,4
2017-06-24T18:23:17.218Z,0
2017-06-24T18:24:25.430Z,4
2017-06-24T18:25:33.398Z,4
2017-06-24T18:26:41.488Z,4
